Time,TemperatureF,DewpointF,PressureIn,WindDirection,WindDirectionDegrees,WindSpeedMPH,WindSpeedGustMPH,Humidity,HourlyPrecipIn,Conditions,Clouds,dailyrainin,SoftwareType,DateUTC
2013-02-19 00:01:00,15.3,6.6,29.54,NW,315,17.0,23.0,68,0.00,,,0.04,meteohub,2013-02-19 06:01:00,
2013-02-19 00:06:00,15.3,6.6,29.54,NW,315,17.0,23.0,68,0.00,,,0.04,meteohub,2013-02-19 06:06:00,
2013-02-19 00:11:00,15.1,6.4,29.55,NW,315,17.0,21.0,68,0.00,,,0.04,meteohub,2013-02-19 06:11:00,
2013-02-19 00:16:00,14.9,6.3,29.54,NW,315,16.0,22.0,68,0.00,,,0.04,meteohub,2013-02-19 06:16:00,
2013-02-19 00:21:00,14.9,6.3,29.55,NW,315,23.0,23.0,68,0.00,,,0.04,meteohub,2013-02-19 06:21:00,
2013-02-19 00:26:00,14.7,5.7,29.55,North,0,11.0,23.0,67,0.00,,,0.04,meteohub,2013-02-19 06:26:00,
2013-02-19 00:31:00,14.5,5.9,29.55,NW,315,21.0,23.0,68,0.00,,,0.04,meteohub,2013-02-19 06:31:00,
2013-02-19 00:36:00,14.4,5.7,29.55,NW,315,23.0,23.0,68,0.00,,,0.04,meteohub,2013-02-19 06:36:00,
2013-02-19 00:41:00,14.2,5.2,29.55,NW,315,15.0,25.0,67,0.00,,,0.04,meteohub,2013-02-19 06:41:00,
2013-02-19 00:46:00,14.0,5.0,29.55,West,270,17.0,25.0,67,0.00,,,0.04,meteohub,2013-02-19 06:46:00,
2013-02-19 00:51:00,13.8,5.2,29.56,NW,315,20.0,25.0,68,0.00,,,0.04,meteohub,2013-02-19 06:51:00,
2013-02-19 00:56:00,13.6,5.0,29.56,NW,315,11.0,23.0,68,0.00,,,0.04,meteohub,2013-02-19 06:56:00,
2013-02-19 01:01:00,13.6,5.4,29.56,North,0,17.0,23.0,69,0.00,,,0.04,meteohub,2013-02-19 07:01:00,
2013-02-19 01:06:00,13.5,5.2,29.56,West,270,10.0,21.0,69,0.00,,,0.04,meteohub,2013-02-19 07:06:00,
2013-02-19 01:11:00,13.5,5.2,29.56,West,270,23.0,23.0,69,0.00,,,0.04,meteohub,2013-02-19 07:11:00,
2013-02-19 01:16:00,13.1,4.5,29.56,West,270,14.0,23.0,68,0.00,,,0.04,meteohub,2013-02-19 07:16:00,
2013-02-19 01:22:00,13.1,4.5,29.56,NW,315,20.0,23.0,68,0.00,,,0.04,meteohub,2013-02-19 07:22:00,
2013-02-19 01:27:00,12.9,4.3,29.57,North,0,11.0,23.0,68,0.00,,,0.04,meteohub,2013-02-19 07:27:00,
2013-02-19 01:32:00,12.6,4.1,29.57,North,0,12.0,23.0,68,0.00,,,0.04,meteohub,2013-02-19 07:32:00,
2013-02-19 01:37:00,12.6,4.1,29.57,NW,315,13.0,21.0,68,0.00,,,0.04,meteohub,2013-02-19 07:37:00,
2013-02-19 01:42:00,12.4,3.9,29.57,NW,315,14.0,21.0,68,0.00,,,0.04,meteohub,2013-02-19 07:42:00,
2013-02-19 01:47:00,12.4,3.9,29.58,North,0,7.0,21.0,68,0.00,,,0.04,meteohub,2013-02-19 07:47:00,
2013-02-19 01:52:00,12.4,4.1,29.58,West,270,13.0,21.0,69,0.00,,,0.04,meteohub,2013-02-19 07:52:00,
2013-02-19 01:57:00,12.4,4.1,29.58,West,270,17.0,17.0,69,0.00,,,0.04,meteohub,2013-02-19 07:57:00,
2013-02-19 02:02:00,12.2,3.9,29.57,West,270,13.0,17.0,69,0.00,,,0.04,meteohub,2013-02-19 08:02:00,
2013-02-19 02:07:00,11.8,4.3,29.58,SW,225,17.0,17.0,71,0.00,,,0.04,meteohub,2013-02-19 08:07:00,
2013-02-19 02:12:00,11.8,4.3,29.58,North,0,15.0,17.0,71,0.00,,,0.04,meteohub,2013-02-19 08:12:00,
2013-02-19 02:17:00,11.7,4.1,29.59,NW,315,16.0,17.0,71,0.00,,,0.04,meteohub,2013-02-19 08:17:00,
2013-02-19 02:22:00,11.7,4.5,29.59,West,270,11.0,20.0,72,0.00,,,0.04,meteohub,2013-02-19 08:22:00,
2013-02-19 02:27:00,11.5,4.3,29.58,NW,315,13.0,20.0,72,0.00,,,0.04,meteohub,2013-02-19 08:27:00,
2013-02-19 02:32:00,11.3,4.1,29.59,West,270,15.0,19.0,72,0.00,,,0.04,meteohub,2013-02-19 08:32:00,
2013-02-19 02:37:00,11.1,3.6,29.58,NW,315,19.0,24.0,71,0.00,,,0.04,meteohub,2013-02-19 08:37:00,
2013-02-19 02:42:00,11.1,3.6,29.59,North,0,14.0,24.0,71,0.00,,,0.04,meteohub,2013-02-19 08:42:00,
2013-02-19 02:48:00,11.1,3.9,29.59,NNW,338,12.0,24.0,72,0.00,,,0.04,meteohub,2013-02-19 08:48:00,
2013-02-19 02:53:00,11.1,3.9,29.59,NW,315,24.0,24.0,72,0.00,,,0.04,meteohub,2013-02-19 08:53:00,
2013-02-19 02:58:00,10.8,3.6,29.59,NW,315,23.0,24.0,72,0.00,,,0.04,meteohub,2013-02-19 08:58:00,
2013-02-19 03:03:00,10.4,3.2,29.59,NW,315,20.0,24.0,72,0.00,,,0.04,meteohub,2013-02-19 09:03:00,
2013-02-19 03:08:00,10.2,1.8,29.60,NW,315,16.0,24.0,68,0.00,,,0.04,meteohub,2013-02-19 09:08:00,
2013-02-19 03:13:00,10.0,1.2,29.59,North,0,24.0,24.0,67,0.00,,,0.04,meteohub,2013-02-19 09:13:00,
2013-02-19 03:18:00,10.0,1.2,29.59,NW,315,15.0,24.0,67,0.00,,,0.04,meteohub,2013-02-19 09:18:00,
2013-02-19 03:23:00,9.9,1.0,29.60,West,270,14.0,24.0,67,0.00,,,0.04,meteohub,2013-02-19 09:23:00,
2013-02-19 03:28:00,9.9,1.0,29.59,NW,315,7.0,24.0,67,0.00,,,0.04,meteohub,2013-02-19 09:28:00,
2013-02-19 03:33:00,9.7,0.9,29.60,NW,315,16.0,21.0,67,0.00,,,0.04,meteohub,2013-02-19 09:33:00,
2013-02-19 03:38:00,9.3,0.5,29.60,NW,315,16.0,21.0,67,0.00,,,0.04,meteohub,2013-02-19 09:38:00,
2013-02-19 03:43:00,9.3,0.5,29.60,West,270,17.0,21.0,67,0.00,,,0.04,meteohub,2013-02-19 09:43:00,
2013-02-19 03:48:00,9.1,0.5,29.60,NW,315,15.0,22.0,67,0.00,,,0.04,meteohub,2013-02-19 09:48:00,
2013-02-19 03:53:00,9.3,0.9,29.60,West,270,11.0,22.0,68,0.00,,,0.04,meteohub,2013-02-19 09:53:00,
2013-02-19 03:58:00,9.3,0.9,29.60,NW,315,12.0,22.0,68,0.00,,,0.04,meteohub,2013-02-19 09:58:00,
2013-02-19 04:03:00,9.3,0.9,29.60,NW,315,16.0,22.0,68,0.00,,,0.04,meteohub,2013-02-19 10:03:00,
2013-02-19 04:08:00,9.3,1.2,29.60,West,270,11.0,22.0,69,0.00,,,0.04,meteohub,2013-02-19 10:08:00,
2013-02-19 04:14:00,9.1,1.0,29.60,NW,315,18.0,18.0,69,0.00,,,0.04,meteohub,2013-02-19 10:14:00,
2013-02-19 04:19:00,9.0,0.9,29.61,NW,315,14.0,20.0,69,0.00,,,0.04,meteohub,2013-02-19 10:19:00,
2013-02-19 04:24:00,9.0,1.2,29.61,West,270,17.0,20.0,70,0.00,,,0.04,meteohub,2013-02-19 10:24:00,
2013-02-19 04:29:00,8.8,1.0,29.61,NW,315,20.0,20.0,70,0.00,,,0.04,meteohub,2013-02-19 10:29:00,
2013-02-19 04:34:00,8.8,0.7,29.61,NW,315,15.0,18.0,69,0.00,,,0.04,meteohub,2013-02-19 10:34:00,
2013-02-19 04:39:00,8.6,0.5,29.62,West,270,13.0,23.0,69,0.00,,,0.04,meteohub,2013-02-19 10:39:00,
2013-02-19 04:44:00,8.6,0.5,29.62,NW,315,12.0,23.0,69,0.00,,,0.04,meteohub,2013-02-19 10:44:00,
2013-02-19 04:49:00,8.4,0.7,29.62,NW,315,9.0,20.0,70,0.00,,,0.04,meteohub,2013-02-19 10:49:00,
2013-02-19 04:54:00,8.4,1.0,29.62,West,270,14.0,20.0,71,0.00,,,0.04,meteohub,2013-02-19 10:54:00,
2013-02-19 04:59:00,8.4,1.0,29.62,North,0,11.0,20.0,71,0.00,,,0.04,meteohub,2013-02-19 10:59:00,
2013-02-19 05:04:00,8.2,0.9,29.62,WSW,248,21.0,21.0,71,0.00,,,0.04,meteohub,2013-02-19 11:04:00,
2013-02-19 05:09:00,7.9,0.1,29.63,SW,225,16.0,21.0,70,0.00,,,0.04,meteohub,2013-02-19 11:09:00,
2013-02-19 05:14:00,7.7,-0.4,29.63,West,270,15.0,21.0,69,0.00,,,0.04,meteohub,2013-02-19 11:14:00,
2013-02-19 05:19:00,7.5,-0.6,29.64,NW,315,22.0,22.0,69,0.00,,,0.04,meteohub,2013-02-19 11:19:00,
2013-02-19 05:24:00,7.5,-0.6,29.63,NW,315,14.0,21.0,69,0.00,,,0.04,meteohub,2013-02-19 11:24:00,
2013-02-19 05:29:00,7.5,-0.8,29.63,NW,315,17.0,22.0,68,0.00,,,0.04,meteohub,2013-02-19 11:29:00,
2013-02-19 05:34:00,7.5,-0.8,29.63,NW,315,23.0,23.0,68,0.00,,,0.04,meteohub,2013-02-19 11:34:00,
2013-02-19 05:40:00,7.5,-0.8,29.63,West,270,19.0,23.0,68,0.00,,,0.04,meteohub,2013-02-19 11:40:00,
2013-02-19 05:45:00,7.5,-0.8,29.64,North,0,13.0,23.0,68,0.00,,,0.04,meteohub,2013-02-19 11:45:00,
2013-02-19 05:50:00,7.5,-0.8,29.64,West,270,15.0,23.0,68,0.00,,,0.04,meteohub,2013-02-19 11:50:00,
2013-02-19 05:55:00,7.3,-0.9,29.64,West,270,15.0,23.0,68,0.00,,,0.04,meteohub,2013-02-19 11:55:00,
2013-02-19 06:00:00,7.2,-1.1,29.64,West,270,16.0,21.0,68,0.00,,,0.04,meteohub,2013-02-19 12:00:00,
2013-02-19 06:05:00,7.2,-1.1,29.64,West,270,16.0,25.0,68,0.00,,,0.04,meteohub,2013-02-19 12:05:00,
2013-02-19 06:10:00,7.0,-1.7,29.64,North,0,17.0,25.0,67,0.00,,,0.04,meteohub,2013-02-19 12:10:00,
2013-02-19 06:15:00,7.2,-1.5,29.64,NW,315,17.0,25.0,67,0.00,,,0.04,meteohub,2013-02-19 12:15:00,
2013-02-19 06:20:00,7.0,-2.0,29.65,NW,315,10.0,21.0,66,0.00,,,0.04,meteohub,2013-02-19 12:20:00,
2013-02-19 06:25:00,7.0,-2.0,29.65,North,0,17.0,21.0,66,0.00,,,0.04,meteohub,2013-02-19 12:25:00,
2013-02-19 06:30:00,6.8,-2.2,29.65,NW,315,23.0,23.0,66,0.00,,,0.04,meteohub,2013-02-19 12:30:00,
2013-02-19 06:35:00,6.8,-2.4,29.65,West,270,18.0,23.0,65,0.00,,,0.04,meteohub,2013-02-19 12:35:00,
2013-02-19 06:40:00,6.8,-2.7,29.66,West,270,15.0,23.0,64,0.00,,,0.04,meteohub,2013-02-19 12:40:00,
2013-02-19 06:45:00,6.8,-2.7,29.66,North,0,12.0,23.0,64,0.00,,,0.04,meteohub,2013-02-19 12:45:00,
2013-02-19 06:50:00,6.8,-2.4,29.66,NW,315,13.0,20.0,65,0.00,,,0.04,meteohub,2013-02-19 12:50:00,
2013-02-19 06:55:00,6.6,-2.4,29.67,NW,315,20.0,20.0,66,0.00,,,0.04,meteohub,2013-02-19 12:55:00,
2013-02-19 07:00:00,6.4,-2.6,29.67,North,0,18.0,23.0,66,0.00,,,0.04,meteohub,2013-02-19 13:00:00,
2013-02-19 07:05:00,6.3,-2.9,29.68,NW,315,21.0,23.0,65,0.00,,,0.04,meteohub,2013-02-19 13:05:00,
2013-02-19 07:10:00,6.3,-2.7,29.67,North,0,11.0,23.0,66,0.00,,,0.04,meteohub,2013-02-19 13:10:00,
2013-02-19 07:15:00,6.1,-2.9,29.68,NW,315,15.0,21.0,66,0.00,,,0.04,meteohub,2013-02-19 13:15:00,
2013-02-19 07:21:00,6.3,-2.7,29.68,WNW,293,17.0,21.0,66,0.00,,,0.04,meteohub,2013-02-19 13:21:00,
2013-02-19 07:26:00,5.9,-2.9,29.68,NW,315,15.0,19.0,66,0.00,,,0.04,meteohub,2013-02-19 13:26:00,
2013-02-19 07:31:00,5.7,-3.1,29.68,NW,315,24.0,24.0,66,0.00,,,0.04,meteohub,2013-02-19 13:31:00,
2013-02-19 07:36:00,5.7,-3.1,29.68,WNW,293,16.0,25.0,66,0.00,,,0.04,meteohub,2013-02-19 13:36:00,
2013-02-19 07:41:00,5.9,-2.9,29.68,West,270,15.0,25.0,66,0.00,,,0.04,meteohub,2013-02-19 13:41:00,
2013-02-19 07:46:00,5.9,-2.9,29.69,NW,315,17.0,25.0,66,0.00,,,0.04,meteohub,2013-02-19 13:46:00,
2013-02-19 07:51:00,6.1,-2.9,29.69,NW,315,18.0,22.0,66,0.00,,,0.04,meteohub,2013-02-19 13:51:00,
2013-02-19 07:56:00,6.3,-2.7,29.69,NW,315,17.0,22.0,66,0.00,,,0.04,meteohub,2013-02-19 13:56:00,
2013-02-19 08:01:00,6.3,-2.9,29.70,West,270,9.0,23.0,65,0.00,,,0.04,meteohub,2013-02-19 14:01:00,
2013-02-19 08:06:00,6.4,-2.7,29.70,NW,315,15.0,23.0,65,0.00,,,0.04,meteohub,2013-02-19 14:06:00,
2013-02-19 08:11:00,6.4,-2.7,29.70,NW,315,19.0,23.0,65,0.00,,,0.04,meteohub,2013-02-19 14:11:00,
2013-02-19 08:16:00,6.8,-3.1,29.70,North,0,14.0,27.0,63,0.00,,,0.04,meteohub,2013-02-19 14:16:00,
2013-02-19 08:21:00,7.0,-2.9,29.70,NW,315,20.0,27.0,63,0.00,,,0.04,meteohub,2013-02-19 14:21:00,
2013-02-19 08:26:00,7.0,-2.9,29.71,NW,315,10.0,21.0,63,0.00,,,0.04,meteohub,2013-02-19 14:26:00,
2013-02-19 08:31:00,7.2,-2.7,29.71,SW,225,23.0,23.0,63,0.00,,,0.04,meteohub,2013-02-19 14:31:00,
2013-02-19 08:36:00,7.0,-3.3,29.71,NW,315,10.0,23.0,62,0.00,,,0.04,meteohub,2013-02-19 14:36:00,
2013-02-19 08:42:00,7.0,-2.9,29.72,SW,225,18.0,23.0,63,0.00,,,0.04,meteohub,2013-02-19 14:42:00,
2013-02-19 08:47:00,6.8,-3.1,29.73,NW,315,11.0,23.0,63,0.00,,,0.04,meteohub,2013-02-19 14:47:00,
2013-02-19 08:52:00,7.0,-2.9,29.72,North,0,19.0,19.0,63,0.00,,,0.04,meteohub,2013-02-19 14:52:00,
2013-02-19 08:57:00,6.8,-3.5,29.73,SW,225,7.0,19.0,62,0.00,,,0.04,meteohub,2013-02-19 14:57:00,
2013-02-19 09:02:00,7.0,-3.3,29.73,NW,315,15.0,26.0,62,0.00,,,0.04,meteohub,2013-02-19 15:02:00,
2013-02-19 09:07:00,7.7,-2.6,29.73,NW,315,15.0,26.0,62,0.00,,,0.04,meteohub,2013-02-19 15:07:00,
2013-02-19 09:12:00,7.3,-3.6,29.73,West,270,20.0,26.0,60,0.00,,,0.04,meteohub,2013-02-19 15:12:00,
2013-02-19 09:17:00,7.7,-3.6,29.74,NW,315,15.0,23.0,59,0.00,,,0.04,meteohub,2013-02-19 15:17:00,
2013-02-19 09:22:00,7.7,-4.0,29.75,NW,315,19.0,23.0,58,0.00,,,0.04,meteohub,2013-02-19 15:22:00,
2013-02-19 09:27:00,7.7,-4.0,29.75,SW,225,15.0,29.0,58,0.00,,,0.04,meteohub,2013-02-19 15:27:00,
2013-02-19 09:32:00,8.6,-3.5,29.75,NW,315,17.0,29.0,57,0.00,,,0.04,meteohub,2013-02-19 15:32:00,
2013-02-19 09:37:00,8.4,-4.0,29.75,West,270,17.0,23.0,56,0.00,,,0.04,meteohub,2013-02-19 15:37:00,
2013-02-19 09:42:00,9.0,-4.0,29.75,WNW,293,19.0,26.0,55,0.00,,,0.04,meteohub,2013-02-19 15:42:00,
2013-02-19 09:47:00,9.1,-3.8,29.76,West,270,17.0,26.0,55,0.00,,,0.04,meteohub,2013-02-19 15:47:00,
2013-02-19 09:52:00,9.3,-4.0,29.76,NW,315,15.0,26.0,54,0.00,,,0.04,meteohub,2013-02-19 15:52:00,
2013-02-19 09:57:00,8.6,-5.1,29.77,NW,315,21.0,24.0,53,0.00,,,0.04,meteohub,2013-02-19 15:57:00,
2013-02-19 10:02:00,8.4,-4.7,29.78,SW,225,10.0,26.0,54,0.00,,,0.04,meteohub,2013-02-19 16:02:00,
2013-02-19 10:07:00,9.1,-4.5,29.78,North,0,22.0,26.0,53,0.00,,,0.04,meteohub,2013-02-19 16:07:00,
2013-02-19 10:12:00,9.0,-5.1,29.78,NW,315,23.0,26.0,52,0.00,,,0.04,meteohub,2013-02-19 16:12:00,
2013-02-19 10:17:00,9.5,-4.5,29.78,SW,225,11.0,22.0,52,0.00,,,0.04,meteohub,2013-02-19 16:17:00,
2013-02-19 10:22:00,9.7,-4.4,29.78,West,270,17.0,23.0,52,0.00,,,0.04,meteohub,2013-02-19 16:22:00,
2013-02-19 10:28:00,9.3,-5.1,29.79,West,270,20.0,23.0,51,0.00,,,0.04,meteohub,2013-02-19 16:28:00,
2013-02-19 10:33:00,9.3,-5.1,29.80,NW,315,21.0,22.0,51,0.00,,,0.04,meteohub,2013-02-19 16:33:00,
2013-02-19 10:38:00,9.7,-4.9,29.80,West,270,23.0,25.0,51,0.00,,,0.04,meteohub,2013-02-19 16:38:00,
2013-02-19 10:43:00,9.5,-4.9,29.80,West,270,19.0,25.0,51,0.00,,,0.04,meteohub,2013-02-19 16:43:00,
2013-02-19 10:48:00,10.6,-2.4,29.80,NW,315,30.0,30.0,55,0.00,,,0.04,meteohub,2013-02-19 16:48:00,
2013-02-19 10:53:00,9.9,-5.1,29.81,SW,225,15.0,30.0,50,0.00,,,0.04,meteohub,2013-02-19 16:53:00,
2013-02-19 10:58:00,11.3,-1.7,29.81,NW,315,19.0,30.0,55,0.00,,,0.04,meteohub,2013-02-19 16:58:00,
2013-02-19 11:03:00,11.1,-2.2,29.81,NW,315,14.0,30.0,54,0.00,,,0.04,meteohub,2013-02-19 17:03:00,
2013-02-19 11:08:00,11.1,-3.1,29.81,NW,315,21.0,24.0,52,0.00,,,0.04,meteohub,2013-02-19 17:08:00,
2013-02-19 11:13:00,10.8,-3.5,29.81,NW,315,24.0,24.0,52,0.00,,,0.04,meteohub,2013-02-19 17:13:00,
2013-02-19 11:18:00,9.9,-6.3,29.82,NW,315,14.0,27.0,47,0.00,,,0.04,meteohub,2013-02-19 17:18:00,
2013-02-19 11:23:00,10.6,-3.1,29.83,West,270,8.0,27.0,53,0.00,,,0.04,meteohub,2013-02-19 17:23:00,
2013-02-19 11:28:00,11.5,-2.0,29.82,NW,315,17.0,27.0,54,0.00,,,0.04,meteohub,2013-02-19 17:28:00,
2013-02-19 11:33:00,12.4,-1.8,29.82,NW,315,18.0,22.0,52,0.00,,,0.04,meteohub,2013-02-19 17:33:00,
2013-02-19 11:38:00,12.7,-1.5,29.83,NW,315,18.0,22.0,52,0.00,,,0.04,meteohub,2013-02-19 17:38:00,
2013-02-19 11:43:00,12.7,-2.4,29.83,NW,315,15.0,22.0,50,0.00,,,0.04,meteohub,2013-02-19 17:43:00,
2013-02-19 11:48:00,12.4,-2.7,29.83,NW,315,9.0,23.0,50,0.00,,,0.04,meteohub,2013-02-19 17:48:00,
2013-02-19 11:53:00,11.7,-3.5,29.83,North,0,13.0,23.0,50,0.00,,,0.04,meteohub,2013-02-19 17:53:00,
2013-02-19 11:58:00,11.1,-3.8,29.84,West,270,15.0,22.0,50,0.00,,,0.04,meteohub,2013-02-19 17:58:00,
2013-02-19 12:04:00,10.8,-4.2,29.84,West,270,20.0,27.0,50,0.00,,,0.04,meteohub,2013-02-19 18:04:00,
2013-02-19 12:09:00,11.3,-3.3,29.84,West,270,20.0,27.0,51,0.00,,,0.04,meteohub,2013-02-19 18:09:00,
2013-02-19 12:14:00,11.5,-3.1,29.84,NW,315,24.0,25.0,51,0.00,,,0.04,meteohub,2013-02-19 18:14:00,
2013-02-19 12:19:00,11.3,-3.6,29.84,NW,315,14.0,25.0,50,0.00,,,0.04,meteohub,2013-02-19 18:19:00,
2013-02-19 12:24:00,11.8,-3.3,29.85,NW,315,11.0,25.0,50,0.00,,,0.04,meteohub,2013-02-19 18:24:00,
2013-02-19 12:29:00,12.4,-2.7,29.85,NW,315,9.0,24.0,50,0.00,,,0.04,meteohub,2013-02-19 18:29:00,
2013-02-19 12:34:00,13.3,-1.8,29.85,NW,315,11.0,23.0,50,0.00,,,0.04,meteohub,2013-02-19 18:34:00,
2013-02-19 12:39:00,12.7,-2.7,29.84,NW,315,22.0,23.0,49,0.00,,,0.04,meteohub,2013-02-19 18:39:00,
2013-02-19 12:44:00,12.6,-3.5,29.85,NW,315,17.0,22.0,48,0.00,,,0.04,meteohub,2013-02-19 18:44:00,
2013-02-19 12:49:00,13.8,-1.8,29.85,West,270,14.0,24.0,49,0.00,,,0.04,meteohub,2013-02-19 18:49:00,
2013-02-19 12:54:00,14.0,-2.0,29.84,NW,315,20.0,24.0,48,0.00,,,0.04,meteohub,2013-02-19 18:54:00,
2013-02-19 12:59:00,13.1,-2.9,29.85,West,270,14.0,22.0,48,0.00,,,0.04,meteohub,2013-02-19 18:59:00,
2013-02-19 13:04:00,13.8,-2.2,29.85,North,0,11.0,23.0,48,0.00,,,0.04,meteohub,2013-02-19 19:04:00,
2013-02-19 13:09:00,14.2,-1.8,29.85,NW,315,14.0,23.0,48,0.00,,,0.04,meteohub,2013-02-19 19:09:00,
2013-02-19 13:14:00,14.9,-1.3,29.85,West,270,16.0,23.0,48,0.00,,,0.04,meteohub,2013-02-19 19:14:00,
2013-02-19 13:19:00,13.1,-2.9,29.86,SE,135,20.0,20.0,48,0.00,,,0.04,meteohub,2013-02-19 19:19:00,
2013-02-19 13:24:00,12.2,-3.8,29.87,West,270,15.0,17.0,48,0.00,,,0.04,meteohub,2013-02-19 19:24:00,
2013-02-19 13:30:00,12.4,-3.1,29.87,NW,315,20.0,23.0,49,0.00,,,0.04,meteohub,2013-02-19 19:30:00,
2013-02-19 13:35:00,12.0,-3.1,29.87,NW,315,16.0,23.0,50,0.00,,,0.04,meteohub,2013-02-19 19:35:00,
2013-02-19 13:40:00,13.5,-1.7,29.87,NW,315,21.0,23.0,50,0.00,,,0.04,meteohub,2013-02-19 19:40:00,
2013-02-19 13:45:00,13.6,-2.0,29.87,WNW,293,21.0,22.0,49,0.00,,,0.04,meteohub,2013-02-19 19:45:00,
2013-02-19 13:50:00,13.8,-1.8,29.87,WSW,248,21.0,23.0,49,0.00,,,0.04,meteohub,2013-02-19 19:50:00,
2013-02-19 13:55:00,13.6,-2.4,29.87,NW,315,27.0,27.0,48,0.00,,,0.04,meteohub,2013-02-19 19:55:00,
2013-02-19 14:00:00,14.0,-2.0,29.87,NW,315,16.0,27.0,48,0.00,,,0.04,meteohub,2013-02-19 20:00:00,
2013-02-19 14:05:00,14.7,-0.9,29.87,North,0,19.0,27.0,49,0.00,,,0.04,meteohub,2013-02-19 20:05:00,
2013-02-19 14:10:00,12.9,-3.1,29.88,NW,315,21.0,27.0,48,0.00,,,0.04,meteohub,2013-02-19 20:10:00,
2013-02-19 14:15:00,12.9,-2.6,29.88,WNW,293,24.0,24.0,49,0.00,,,0.04,meteohub,2013-02-19 20:15:00,
2013-02-19 14:20:00,13.5,-2.2,29.88,West,270,11.0,24.0,49,0.00,,,0.04,meteohub,2013-02-19 20:20:00,
2013-02-19 14:25:00,14.2,-1.8,29.88,West,270,12.0,24.0,48,0.00,,,0.04,meteohub,2013-02-19 20:25:00,
2013-02-19 14:30:00,13.8,-1.8,29.89,NW,315,14.0,24.0,49,0.00,,,0.04,meteohub,2013-02-19 20:30:00,
2013-02-19 14:35:00,14.5,-1.7,29.89,North,0,15.0,21.0,48,0.00,,,0.04,meteohub,2013-02-19 20:35:00,
2013-02-19 14:40:00,14.9,-1.3,29.89,NW,315,11.0,28.0,48,0.00,,,0.04,meteohub,2013-02-19 20:40:00,
2013-02-19 14:46:00,14.9,-1.3,29.89,WNW,293,23.0,29.0,48,0.00,,,0.04,meteohub,2013-02-19 20:46:00,
2013-02-19 14:51:00,14.5,-2.0,29.89,WNW,293,22.0,29.0,47,0.00,,,0.04,meteohub,2013-02-19 20:51:00,
2013-02-19 14:56:00,14.7,-1.5,29.89,NW,315,18.0,29.0,48,0.00,,,0.04,meteohub,2013-02-19 20:56:00,
2013-02-19 15:01:00,15.3,-0.9,29.90,SW,225,15.0,24.0,48,0.00,,,0.04,meteohub,2013-02-19 21:01:00,
2013-02-19 15:06:00,15.3,-0.9,29.89,North,0,11.0,22.0,48,0.00,,,0.04,meteohub,2013-02-19 21:06:00,
2013-02-19 15:11:00,15.6,-0.9,29.91,NW,315,15.0,21.0,47,0.00,,,0.04,meteohub,2013-02-19 21:11:00,
2013-02-19 15:16:00,15.1,-1.5,29.91,West,270,21.0,23.0,47,0.00,,,0.04,meteohub,2013-02-19 21:16:00,
2013-02-19 15:21:00,14.9,-1.7,29.91,NW,315,23.0,23.0,47,0.00,,,0.04,meteohub,2013-02-19 21:21:00,
2013-02-19 15:26:00,14.9,-1.7,29.92,NW,315,15.0,23.0,47,0.00,,,0.04,meteohub,2013-02-19 21:26:00,
2013-02-19 15:31:00,15.1,-1.1,29.92,NW,315,15.0,23.0,48,0.00,,,0.04,meteohub,2013-02-19 21:31:00,
2013-02-19 15:36:00,14.5,-1.7,29.92,NW,315,19.0,23.0,48,0.00,,,0.04,meteohub,2013-02-19 21:36:00,
2013-02-19 15:41:00,13.6,-2.0,29.94,NW,315,14.0,24.0,49,0.00,,,0.04,meteohub,2013-02-19 21:41:00,
2013-02-19 15:46:00,13.3,-1.8,29.94,NW,315,5.0,24.0,50,0.00,,,0.04,meteohub,2013-02-19 21:46:00,
2013-02-19 15:52:00,13.6,-1.5,29.94,West,270,11.0,24.0,50,0.00,,,0.04,meteohub,2013-02-19 21:52:00,
2013-02-19 15:57:00,13.3,-1.8,29.94,North,0,13.0,23.0,50,0.00,,,0.04,meteohub,2013-02-19 21:57:00,
2013-02-19 16:02:00,13.6,-1.1,29.94,NW,315,11.0,23.0,51,0.00,,,0.04,meteohub,2013-02-19 22:02:00,
2013-02-19 16:07:00,14.0,-1.3,29.94,SW,225,11.0,23.0,50,0.00,,,0.04,meteohub,2013-02-19 22:07:00,
2013-02-19 16:12:00,14.4,-0.9,29.94,NW,315,15.0,23.0,50,0.00,,,0.04,meteohub,2013-02-19 22:12:00,
2013-02-19 16:17:00,13.6,-1.5,29.94,West,270,13.0,17.0,50,0.00,,,0.04,meteohub,2013-02-19 22:17:00,
2013-02-19 16:22:00,13.3,-1.8,29.95,North,0,23.0,23.0,50,0.00,,,0.04,meteohub,2013-02-19 22:22:00,
2013-02-19 16:27:00,12.7,-2.4,29.96,NW,315,23.0,27.0,50,0.00,,,0.04,meteohub,2013-02-19 22:27:00,
2013-02-19 16:32:00,12.6,-2.2,29.96,NW,315,21.0,27.0,51,0.00,,,0.04,meteohub,2013-02-19 22:32:00,
2013-02-19 16:37:00,12.7,-2.0,29.96,North,0,17.0,27.0,51,0.00,,,0.04,meteohub,2013-02-19 22:37:00,
2013-02-19 16:42:00,12.6,-2.2,29.96,NW,315,17.0,26.0,51,0.00,,,0.04,meteohub,2013-02-19 22:42:00,
2013-02-19 16:47:00,12.4,-2.4,29.96,West,270,15.0,22.0,51,0.00,,,0.04,meteohub,2013-02-19 22:47:00,
2013-02-19 16:52:00,12.2,-2.6,29.96,NW,315,15.0,22.0,51,0.00,,,0.04,meteohub,2013-02-19 22:52:00,
2013-02-19 16:57:00,12.0,-2.2,29.96,NW,315,17.0,21.0,52,0.00,,,0.04,meteohub,2013-02-19 22:57:00,
2013-02-19 17:02:00,11.7,-2.6,29.97,North,0,17.0,21.0,52,0.00,,,0.04,meteohub,2013-02-19 23:02:00,
2013-02-19 17:08:00,11.7,-2.6,29.97,South,180,11.0,21.0,52,0.00,,,0.04,meteohub,2013-02-19 23:08:00,
2013-02-19 17:13:00,11.5,-2.4,29.97,NW,315,16.0,21.0,53,0.00,,,0.04,meteohub,2013-02-19 23:13:00,
2013-02-19 17:18:00,10.9,-3.3,29.97,West,270,15.0,21.0,52,0.00,,,0.04,meteohub,2013-02-19 23:18:00,
2013-02-19 17:23:00,10.6,-3.6,29.97,NW,315,15.0,23.0,52,0.00,,,0.04,meteohub,2013-02-19 23:23:00,
2013-02-19 17:28:00,10.4,-3.3,29.97,NW,315,17.0,23.0,53,0.00,,,0.04,meteohub,2013-02-19 23:28:00,
2013-02-19 17:33:00,10.0,-5.3,29.97,NW,315,16.0,23.0,49,0.00,,,0.04,meteohub,2013-02-19 23:33:00,
2013-02-19 17:38:00,9.7,-5.3,29.98,WNW,293,14.0,23.0,50,0.00,,,0.04,meteohub,2013-02-19 23:38:00,
2013-02-19 17:43:00,9.5,-4.9,29.97,NW,315,12.0,23.0,51,0.00,,,0.04,meteohub,2013-02-19 23:43:00,
2013-02-19 17:48:00,9.1,-5.3,29.98,NW,315,11.0,23.0,51,0.00,,,0.04,meteohub,2013-02-19 23:48:00,
2013-02-19 17:53:00,8.8,-5.3,29.97,NW,315,15.0,22.0,52,0.00,,,0.04,meteohub,2013-02-19 23:53:00,
2013-02-19 17:58:00,8.6,-5.4,29.97,NW,315,17.0,22.0,52,0.00,,,0.04,meteohub,2013-02-19 23:58:00,
2013-02-19 18:03:00,8.6,-5.4,29.98,NW,315,14.0,21.0,52,0.00,,,0.04,meteohub,2013-02-20 00:03:00,
2013-02-19 18:08:00,8.4,-5.3,29.98,NW,315,18.0,19.0,53,0.00,,,0.00,meteohub,2013-02-20 00:08:00,
2013-02-19 18:13:00,8.4,-5.3,29.98,NW,315,17.0,19.0,53,0.00,,,0.00,meteohub,2013-02-20 00:13:00,
2013-02-19 18:18:00,8.4,-5.3,29.98,North,0,11.0,21.0,53,0.00,,,0.00,meteohub,2013-02-20 00:18:00,
2013-02-19 18:23:00,8.2,-5.4,29.98,NW,315,9.0,23.0,53,0.00,,,0.00,meteohub,2013-02-20 00:23:00,
2013-02-19 18:28:00,8.2,-5.4,29.98,NW,315,14.0,25.0,53,0.00,,,0.00,meteohub,2013-02-20 00:28:00,
2013-02-19 18:34:00,8.1,-5.6,29.98,NW,315,15.0,25.0,53,0.00,,,0.00,meteohub,2013-02-20 00:34:00,
2013-02-19 18:39:00,7.9,-5.6,29.99,North,0,11.0,23.0,53,0.00,,,0.00,meteohub,2013-02-20 00:39:00,
2013-02-19 18:44:00,7.7,-5.8,29.99,North,0,20.0,23.0,53,0.00,,,0.00,meteohub,2013-02-20 00:44:00,
2013-02-19 18:49:00,7.7,-5.8,29.98,North,0,19.0,23.0,53,0.00,,,0.00,meteohub,2013-02-20 00:49:00,
2013-02-19 18:54:00,7.7,-5.8,29.98,NE,45,19.0,21.0,53,0.00,,,0.00,meteohub,2013-02-20 00:54:00,
2013-02-19 18:59:00,7.5,-6.0,29.99,North,0,15.0,21.0,53,0.00,,,0.00,meteohub,2013-02-20 00:59:00,
2013-02-19 19:04:00,7.3,-6.2,29.99,NW,315,17.0,21.0,53,0.00,,,0.00,meteohub,2013-02-20 01:04:00,
2013-02-19 19:09:00,7.2,-6.3,29.99,North,0,18.0,21.0,53,0.00,,,0.00,meteohub,2013-02-20 01:09:00,
2013-02-19 19:14:00,7.2,-6.7,29.99,North,0,20.0,21.0,52,0.00,,,0.00,meteohub,2013-02-20 01:14:00,
2013-02-19 19:19:00,7.0,-6.9,29.99,NW,315,24.0,24.0,52,0.00,,,0.00,meteohub,2013-02-20 01:19:00,
2013-02-19 19:24:00,6.8,-7.1,29.99,NW,315,27.0,27.0,52,0.00,,,0.00,meteohub,2013-02-20 01:24:00,
2013-02-19 19:29:00,6.8,-7.1,29.99,West,270,19.0,27.0,52,0.00,,,0.00,meteohub,2013-02-20 01:29:00,
2013-02-19 19:34:00,6.6,-6.9,29.99,North,0,15.0,27.0,53,0.00,,,0.00,meteohub,2013-02-20 01:34:00,
2013-02-19 19:39:00,6.4,-7.1,29.99,West,270,16.0,27.0,53,0.00,,,0.00,meteohub,2013-02-20 01:39:00,
2013-02-19 19:44:00,6.4,-7.1,29.99,NW,315,20.0,30.0,53,0.00,,,0.00,meteohub,2013-02-20 01:44:00,
2013-02-19 19:49:00,6.3,-7.2,30.00,NW,315,17.0,30.0,53,0.00,,,0.00,meteohub,2013-02-20 01:49:00,
2013-02-19 19:54:00,6.3,-7.2,30.00,NW,315,15.0,30.0,53,0.00,,,0.00,meteohub,2013-02-20 01:54:00,
2013-02-19 19:59:00,6.1,-7.1,30.00,West,270,14.0,23.0,54,0.00,,,0.00,meteohub,2013-02-20 01:59:00,
2013-02-19 20:05:00,5.9,-7.2,30.00,North,0,18.0,23.0,54,0.00,,,0.00,meteohub,2013-02-20 02:05:00,
2013-02-19 20:10:00,5.9,-7.2,30.00,NW,315,11.0,23.0,54,0.00,,,0.00,meteohub,2013-02-20 02:10:00,
2013-02-19 20:15:00,5.7,-7.4,30.00,NW,315,20.0,21.0,54,0.00,,,0.00,meteohub,2013-02-20 02:15:00,
2013-02-19 20:20:00,5.7,-7.4,30.00,North,0,17.0,21.0,54,0.00,,,0.00,meteohub,2013-02-20 02:20:00,
2013-02-19 20:25:00,5.5,-7.4,30.00,NW,315,11.0,21.0,54,0.00,,,0.00,meteohub,2013-02-20 02:25:00,
2013-02-19 20:30:00,5.5,-7.4,30.01,North,0,20.0,21.0,54,0.00,,,0.00,meteohub,2013-02-20 02:30:00,
2013-02-19 20:35:00,5.5,-7.4,30.01,NW,315,12.0,21.0,54,0.00,,,0.00,meteohub,2013-02-20 02:35:00,
2013-02-19 20:40:00,5.4,-7.6,30.01,NW,315,15.0,21.0,54,0.00,,,0.00,meteohub,2013-02-20 02:40:00,
2013-02-19 20:45:00,5.4,-7.6,30.01,NW,315,17.0,20.0,54,0.00,,,0.00,meteohub,2013-02-20 02:45:00,
2013-02-19 20:50:00,5.2,-7.8,30.01,NW,315,10.0,18.0,54,0.00,,,0.00,meteohub,2013-02-20 02:50:00,
2013-02-19 20:55:00,5.2,-7.4,30.01,NW,315,14.0,17.0,55,0.00,,,0.00,meteohub,2013-02-20 02:55:00,
2013-02-19 21:00:00,5.2,-7.4,30.02,NW,315,17.0,18.0,55,0.00,,,0.00,meteohub,2013-02-20 03:00:00,
2013-02-19 21:05:00,5.0,-7.6,30.02,NW,315,14.0,18.0,55,0.00,,,0.00,meteohub,2013-02-20 03:05:00,
2013-02-19 21:10:00,5.0,-7.6,30.02,North,0,16.0,19.0,55,0.00,,,0.00,meteohub,2013-02-20 03:10:00,
2013-02-19 21:15:00,5.0,-7.6,30.02,North,0,13.0,20.0,55,0.00,,,0.00,meteohub,2013-02-20 03:15:00,
2013-02-19 21:20:00,5.0,-7.6,30.03,NW,315,12.0,20.0,55,0.00,,,0.00,meteohub,2013-02-20 03:20:00,
2013-02-19 21:26:00,4.8,-7.4,30.03,NW,315,15.0,20.0,56,0.00,,,0.00,meteohub,2013-02-20 03:26:00,
2013-02-19 21:31:00,4.6,-7.6,30.03,NW,315,14.0,16.0,56,0.00,,,0.00,meteohub,2013-02-20 03:31:00,
2013-02-19 21:36:00,4.6,-7.6,30.03,NW,315,14.0,16.0,56,0.00,,,0.00,meteohub,2013-02-20 03:36:00,
2013-02-19 21:41:00,4.6,-8.0,30.03,NW,315,19.0,19.0,55,0.00,,,0.00,meteohub,2013-02-20 03:41:00,
2013-02-19 21:46:00,4.5,-8.1,30.04,West,270,11.0,19.0,55,0.00,,,0.00,meteohub,2013-02-20 03:46:00,
2013-02-19 21:51:00,4.5,-8.1,30.04,West,270,17.0,19.0,55,0.00,,,0.00,meteohub,2013-02-20 03:51:00,
2013-02-19 21:56:00,4.5,-8.1,30.03,NW,315,10.0,19.0,55,0.00,,,0.00,meteohub,2013-02-20 03:56:00,
2013-02-19 22:01:00,4.3,-8.3,30.03,WNW,293,17.0,17.0,55,0.00,,,0.00,meteohub,2013-02-20 04:01:00,
2013-02-19 22:06:00,4.3,-8.3,30.35,NW,315,15.0,21.0,55,0.00,,,0.00,meteohub,2013-02-20 04:06:00,
2013-02-19 22:11:00,4.1,-8.5,30.35,NW,315,12.0,21.0,55,0.00,,,0.00,meteohub,2013-02-20 04:11:00,
2013-02-19 22:16:00,4.1,-8.5,30.35,NW,315,11.0,21.0,55,0.00,,,0.00,meteohub,2013-02-20 04:16:00,
2013-02-19 22:21:00,4.1,-8.5,30.35,North,0,14.0,15.0,55,0.00,,,0.00,meteohub,2013-02-20 04:21:00,
2013-02-19 22:26:00,3.9,-8.7,30.35,NW,315,15.0,22.0,55,0.00,,,0.00,meteohub,2013-02-20 04:26:00,
2013-02-19 22:31:00,3.7,-8.9,30.35,NW,315,13.0,22.0,55,0.00,,,0.00,meteohub,2013-02-20 04:31:00,
2013-02-19 22:36:00,3.6,-9.0,30.35,WNW,293,12.0,22.0,55,0.00,,,0.00,meteohub,2013-02-20 04:36:00,
2013-02-19 22:41:00,3.6,-9.0,30.35,WNW,293,13.0,21.0,55,0.00,,,0.00,meteohub,2013-02-20 04:41:00,
2013-02-19 22:46:00,3.6,-9.0,30.35,NW,315,15.0,20.0,55,0.00,,,0.00,meteohub,2013-02-20 04:46:00,
2013-02-19 22:51:00,3.6,-9.0,30.36,North,0,17.0,17.0,55,0.00,,,0.00,meteohub,2013-02-20 04:51:00,
2013-02-19 22:57:00,3.4,-9.2,30.36,NW,315,15.0,17.0,55,0.00,,,0.00,meteohub,2013-02-20 04:57:00,
2013-02-19 23:00:00,3.4,-9.2,30.36,North,0,13.0,17.0,55,0.00,,,0.00,meteohub,2013-02-20 05:00:00,
2013-02-19 23:01:00,3.4,-9.2,30.36,NW,315,15.0,19.0,55,0.00,,,0.00,meteohub,2013-02-20 05:01:00,
2013-02-19 23:02:00,3.4,-9.2,30.37,WNW,293,17.0,19.0,55,0.00,,,0.00,meteohub,2013-02-20 05:02:00,
2013-02-19 23:07:00,3.4,-9.2,30.36,NW,315,17.0,19.0,55,0.00,,,0.00,meteohub,2013-02-20 05:07:00,
2013-02-19 23:12:00,3.2,-9.4,30.37,West,270,17.0,18.0,55,0.00,,,0.00,meteohub,2013-02-20 05:12:00,
2013-02-19 23:17:00,3.2,-9.4,30.37,NW,315,15.0,18.0,55,0.00,,,0.00,meteohub,2013-02-20 05:17:00,
2013-02-19 23:22:00,3.2,-9.4,30.37,NW,315,15.0,17.0,55,0.00,,,0.00,meteohub,2013-02-20 05:22:00,
2013-02-19 23:27:00,3.2,-9.4,30.38,NW,315,13.0,21.0,55,0.00,,,0.00,meteohub,2013-02-20 05:27:00,
2013-02-19 23:32:00,3.2,-9.4,30.38,North,0,10.0,21.0,55,0.00,,,0.00,meteohub,2013-02-20 05:32:00,